createdAt,value
2018-11-20T00:00:59.420Z,-0.60
2018-11-20T00:03:49.396Z,-0.60
2018-11-20T00:06:54.114Z,-0.60
2018-11-20T00:09:41.360Z,-0.60
2018-11-20T00:12:41.473Z,-0.60
2018-11-20T00:15:37.302Z,-0.70
2018-11-20T00:18:13.270Z,-0.70
2018-11-20T00:21:00.349Z,-0.70
2018-11-20T00:23:43.498Z,-0.70
2018-11-20T00:26:23.829Z,-0.70
2018-11-20T00:29:10.129Z,-0.70
2018-11-20T00:32:10.863Z,-0.70
2018-11-20T00:34:58.280Z,-0.70
2018-11-20T00:38:05.053Z,-0.70
2018-11-20T00:40:53.556Z,-0.70
2018-11-20T00:43:42.155Z,-0.70
2018-11-20T00:46:29.842Z,-0.70
2018-11-20T00:49:13.750Z,-0.70
2018-11-20T00:52:07.507Z,-0.70
2018-11-20T00:54:55.479Z,-0.70
2018-11-20T00:57:43.776Z,-0.70
2018-11-20T01:00:32.904Z,-0.80
2018-11-20T01:03:21.396Z,-0.80
2018-11-20T01:06:08.231Z,-0.80
2018-11-20T01:09:17.729Z,-0.80
2018-11-20T01:12:07.686Z,-0.80
2018-11-20T01:15:00.212Z,-0.80
2018-11-20T01:18:02.532Z,-0.80
2018-11-20T01:21:02.170Z,-0.70
2018-11-20T01:23:54.600Z,-0.70
2018-11-20T01:26:48.335Z,-0.80
2018-11-20T01:29:45.894Z,-0.70
2018-11-20T01:32:49.583Z,-0.80
2018-11-20T01:35:38.446Z,-0.70
2018-11-20T01:38:37.320Z,-0.80
2018-11-20T01:41:28.870Z,-0.80
2018-11-20T01:44:35.332Z,-0.70
2018-11-20T01:47:23.921Z,-0.80
2018-11-20T01:50:27.525Z,-0.70
2018-11-20T01:53:19.082Z,-0.80
2018-11-20T01:56:05.862Z,-0.80
2018-11-20T01:58:57.445Z,-0.80
2018-11-20T02:01:46.696Z,-0.80
2018-11-20T02:04:50.260Z,-0.80
2018-11-20T02:07:42.197Z,-0.80
2018-11-20T02:11:05.859Z,-0.80
2018-11-20T02:13:57.059Z,-0.70
2018-11-20T02:16:54.715Z,-0.80
2018-11-20T02:19:58.205Z,-0.80
2018-11-20T02:22:45.893Z,-0.80
2018-11-20T02:25:23.584Z,-0.80
2018-11-20T02:28:18.221Z,-0.80
2018-11-20T02:31:08.828Z,-0.80
2018-11-20T02:34:08.288Z,-0.80
2018-11-20T02:36:54.433Z,-0.80
2018-11-20T02:39:41.373Z,-0.80
2018-11-20T02:42:44.276Z,-0.80
2018-11-20T02:45:34.347Z,-0.90
2018-11-20T02:48:18.414Z,-0.80
2018-11-20T02:51:09.131Z,-0.80
2018-11-20T02:53:56.613Z,-0.80
2018-11-20T02:56:35.897Z,-0.80
2018-11-20T02:59:21.829Z,-0.80
2018-11-20T03:02:12.340Z,-0.80
2018-11-20T03:04:54.269Z,-0.90
2018-11-20T03:07:40.468Z,-0.90
2018-11-20T03:10:23.656Z,-0.80
2018-11-20T03:13:09.873Z,-0.90
2018-11-20T03:16:06.503Z,-0.90
2018-11-20T03:18:44.847Z,-0.90
2018-11-20T03:21:31.515Z,-0.90
2018-11-20T03:24:22.016Z,-0.90
2018-11-20T03:27:15.591Z,-0.90
2018-11-20T03:30:59.396Z,-0.90
2018-11-20T03:33:47.025Z,-0.90
2018-11-20T03:36:24.556Z,-0.80
2018-11-20T03:39:11.333Z,-0.80
2018-11-20T03:42:04.715Z,-0.80
2018-11-20T03:44:58.758Z,-0.80
2018-11-20T03:48:01.372Z,-0.80
2018-11-20T03:50:48.686Z,-0.80
2018-11-20T03:53:34.854Z,-0.80
2018-11-20T03:56:20.971Z,-0.80
2018-11-20T03:58:58.784Z,-0.80
2018-11-20T04:02:04.551Z,-0.80
2018-11-20T04:04:51.148Z,-0.80
2018-11-20T04:07:41.806Z,-0.80
2018-11-20T04:10:36.545Z,-0.80
2018-11-20T04:13:24.522Z,-0.80
2018-11-20T04:16:18.118Z,-0.80
2018-11-20T04:19:14.688Z,-0.80
2018-11-20T04:22:02.279Z,-0.70
2018-11-20T04:25:02.004Z,-0.70
2018-11-20T04:27:49.537Z,-0.70
2018-11-20T04:31:02.695Z,-0.70
2018-11-20T04:34:12.996Z,-0.70
2018-11-20T04:37:09.849Z,-0.70
2018-11-20T04:40:03.208Z,-0.70
2018-11-20T04:42:56.824Z,-0.70
2018-11-20T04:45:34.105Z,-0.70
2018-11-20T04:48:21.696Z,-0.70
2018-11-20T04:51:01.489Z,-0.60
2018-11-20T04:53:45.903Z,-0.60
2018-11-20T04:56:37.456Z,-0.60
2018-11-20T04:59:30.935Z,-0.60
2018-11-20T05:02:24.817Z,-0.60
2018-11-20T05:05:11.557Z,-0.60
2018-11-20T05:07:59.144Z,-0.60
2018-11-20T05:10:47.594Z,-0.60
2018-11-20T05:13:33.963Z,-0.60
2018-11-20T05:16:20.648Z,-0.60
2018-11-20T05:19:09.949Z,-0.60
2018-11-20T05:22:01.011Z,-0.50
2018-11-20T05:24:51.368Z,-0.60
2018-11-20T05:27:47.849Z,-0.60
2018-11-20T05:30:33.916Z,-0.60
2018-11-20T05:33:19.971Z,-0.50
2018-11-20T05:36:06.456Z,-0.50
2018-11-20T05:39:02.971Z,-0.50
2018-11-20T05:41:49.272Z,-0.50
2018-11-20T05:44:39.842Z,-0.60
2018-11-20T05:47:36.219Z,-0.50
2018-11-20T05:50:23.664Z,-0.50
2018-11-20T05:53:01.517Z,-0.60
2018-11-20T05:55:52.251Z,-0.60
2018-11-20T05:58:45.970Z,-0.60
2018-11-20T06:01:51.872Z,-0.50
2018-11-20T06:04:32.868Z,-0.50
2018-11-20T06:07:19.171Z,-0.50
2018-11-20T06:10:05.727Z,-0.60
2018-11-20T06:12:52.300Z,-0.50
2018-11-20T06:15:46.098Z,-0.50
2018-11-20T06:18:32.440Z,-0.50
2018-11-20T06:21:14.199Z,-0.50
2018-11-20T06:26:54.492Z,-0.50
2018-11-20T06:29:40.592Z,-0.50
2018-11-20T06:32:28.120Z,-0.40
2018-11-20T06:35:05.882Z,-0.40
2018-11-20T06:37:46.688Z,-0.40
2018-11-20T06:40:34.233Z,-0.40
2018-11-20T06:43:29.077Z,-0.40
2018-11-20T06:46:16.656Z,-0.40
2018-11-20T06:49:07.218Z,-0.40
2018-11-20T06:51:57.515Z,-0.40
2018-11-20T06:54:45.068Z,-0.40
2018-11-20T06:57:31.353Z,-0.40
2018-11-20T07:00:24.412Z,-0.40
2018-11-20T07:03:10.827Z,-0.40
2018-11-20T07:06:04.363Z,-0.40
2018-11-20T07:08:57.942Z,-0.40
2018-11-20T07:11:51.557Z,-0.30
2018-11-20T07:14:44.242Z,-0.30
2018-11-20T07:17:40.907Z,-0.30
2018-11-20T07:20:37.357Z,-0.30
2018-11-20T07:23:24.925Z,-0.30
2018-11-20T07:26:27.600Z,-0.20
2018-11-20T07:29:15.167Z,-0.20
2018-11-20T07:32:11.848Z,-0.10
2018-11-20T07:34:57.923Z,-0.10
2018-11-20T07:37:44.512Z,-0.10
2018-11-20T07:40:30.900Z,-0.10
2018-11-20T07:43:18.877Z,-0.10
2018-11-20T07:46:12.215Z,-0.10
2018-11-20T07:48:59.664Z,-0.10
2018-11-20T07:51:47.268Z,0.00
2018-11-20T07:54:33.389Z,0.00
2018-11-20T07:57:19.516Z,0.00
2018-11-20T08:00:06.040Z,0.00
2018-11-20T08:02:52.134Z,0.00
2018-11-20T08:06:05.203Z,0.00
2018-11-20T08:08:52.870Z,0.00
2018-11-20T08:11:39.041Z,0.00
2018-11-20T08:14:26.349Z,0.10
2018-11-20T08:17:26.255Z,0.10
2018-11-20T08:20:13.820Z,0.10
2018-11-20T08:23:01.463Z,0.10
2018-11-20T08:26:04.188Z,0.10
2018-11-20T08:28:57.389Z,0.20
2018-11-20T08:31:47.998Z,0.20
2018-11-20T08:34:47.374Z,0.20
2018-11-20T08:37:27.753Z,0.20
2018-11-20T08:40:20.300Z,0.20
2018-11-20T08:43:06.385Z,0.30
2018-11-20T08:46:05.848Z,0.30
2018-11-20T08:48:53.493Z,0.40
2018-11-20T08:51:50.314Z,0.40
2018-11-20T08:54:40.727Z,0.50
2018-11-20T08:57:34.102Z,0.50
2018-11-20T09:00:18.341Z,0.50
2018-11-20T09:03:12.556Z,0.50
2018-11-20T09:06:09.550Z,0.60
2018-11-20T09:08:57.813Z,0.60
2018-11-20T09:11:44.409Z,0.60
2018-11-20T09:14:30.514Z,0.70
2018-11-20T09:17:20.951Z,0.70
2018-11-20T09:20:08.579Z,0.70
2018-11-20T09:23:05.323Z,0.80
2018-11-20T09:25:51.072Z,0.80
2018-11-20T09:28:37.177Z,0.90
2018-11-20T09:31:23.466Z,0.90
2018-11-20T09:34:09.811Z,1.00
2018-11-20T09:37:03.224Z,1.00
2018-11-20T09:39:52.017Z,1.00
2018-11-20T09:42:43.086Z,1.00
2018-11-20T09:46:30.712Z,1.10
2018-11-20T09:49:17.335Z,1.00
2018-11-20T09:52:13.958Z,1.10
2018-11-20T09:55:19.898Z,1.10
2018-11-20T09:58:13.279Z,1.10
2018-11-20T10:01:02.393Z,1.10
2018-11-20T10:04:01.964Z,1.10
2018-11-20T10:06:48.167Z,1.10
2018-11-20T10:09:32.166Z,1.10
2018-11-20T10:12:18.676Z,1.10
2018-11-20T10:15:05.063Z,1.10
2018-11-20T10:18:01.569Z,1.10
2018-11-20T10:21:01.144Z,1.10
2018-11-20T10:23:47.435Z,1.10
2018-11-20T10:26:35.170Z,1.20
2018-11-20T10:29:40.525Z,1.20
2018-11-20T10:32:28.082Z,1.20
2018-11-20T10:35:24.866Z,1.20
2018-11-20T10:38:17.038Z,1.20
2018-11-20T10:41:08.216Z,1.20
2018-11-20T10:43:53.981Z,1.20
2018-11-20T10:47:00.137Z,1.20
2018-11-20T10:49:46.309Z,1.20
2018-11-20T10:52:32.933Z,1.30
2018-11-20T10:55:19.077Z,1.30
2018-11-20T10:58:09.478Z,1.40
2018-11-20T11:00:55.925Z,1.40
2018-11-20T11:03:42.228Z,1.40
2018-11-20T11:06:28.781Z,1.40
2018-11-20T11:09:14.763Z,1.40
2018-11-20T11:12:14.780Z,1.30
2018-11-20T11:15:14.197Z,1.40
2018-11-20T11:18:00.417Z,1.40
2018-11-20T11:20:56.507Z,1.50
2018-11-20T11:23:38.959Z,1.50
2018-11-20T11:26:25.378Z,1.50
2018-11-20T11:29:03.774Z,1.50
2018-11-20T11:31:50.026Z,1.50
2018-11-20T11:34:40.198Z,1.50
2018-11-20T11:37:33.568Z,1.40
2018-11-20T11:40:15.095Z,1.50
2018-11-20T11:43:11.991Z,1.50
2018-11-20T11:46:09.840Z,1.50
2018-11-20T11:49:09.424Z,1.50
2018-11-20T11:51:57.433Z,1.50
2018-11-20T11:54:43.967Z,1.60
2018-11-20T11:57:30.367Z,1.60
2018-11-20T12:00:16.477Z,1.60
2018-11-20T12:06:02.879Z,1.60
2018-11-20T12:08:56.168Z,1.60
2018-11-20T12:11:42.903Z,1.60
2018-11-20T12:14:39.632Z,1.70
2018-11-20T12:17:27.269Z,1.70
2018-11-20T12:20:15.196Z,1.70
2018-11-20T12:23:12.426Z,1.70
2018-11-20T12:25:58.547Z,1.70
2018-11-20T12:28:55.863Z,1.70
2018-11-20T12:31:31.429Z,1.70
2018-11-20T12:34:11.114Z,1.80
2018-11-20T12:36:57.684Z,1.80
2018-11-20T12:39:51.471Z,1.80
2018-11-20T12:42:42.785Z,1.80
2018-11-20T12:48:29.602Z,1.90
2018-11-20T12:51:35.439Z,1.80
2018-11-20T12:54:32.210Z,1.80
2018-11-20T12:57:22.313Z,2.00
2018-11-20T13:00:15.836Z,2.00
2018-11-20T13:03:12.040Z,2.00
2018-11-20T13:05:59.628Z,2.00
2018-11-20T13:09:03.107Z,1.90
2018-11-20T13:11:59.915Z,1.90
2018-11-20T13:14:56.573Z,2.00
2018-11-20T13:17:41.376Z,2.00
2018-11-20T13:20:31.585Z,2.00
2018-11-20T13:23:25.407Z,2.00
2018-11-20T13:26:10.651Z,2.00
2018-11-20T13:28:57.178Z,2.00
2018-11-20T13:31:43.243Z,2.00
2018-11-20T13:34:43.009Z,2.00
2018-11-20T13:37:31.992Z,2.00
2018-11-20T13:40:21.219Z,2.00
2018-11-20T13:43:04.101Z,2.00
2018-11-20T13:45:51.946Z,2.00
2018-11-20T13:48:36.897Z,1.90
2018-11-20T13:51:22.591Z,2.00
2018-11-20T13:54:08.616Z,2.00
2018-11-20T13:56:58.838Z,1.90
2018-11-20T14:00:01.507Z,1.80
2018-11-20T14:02:44.974Z,1.90
2018-11-20T14:05:32.964Z,1.90
2018-11-20T14:08:24.596Z,1.80
2018-11-20T14:11:10.032Z,1.80
2018-11-20T14:14:02.989Z,1.90
2018-11-20T14:17:06.201Z,1.90
2018-11-20T14:19:53.760Z,2.00
2018-11-20T14:22:44.122Z,2.00
2018-11-20T14:25:42.088Z,2.00
2018-11-20T14:28:23.382Z,2.10
2018-11-20T14:31:16.664Z,2.10
2018-11-20T14:34:06.912Z,2.00
2018-11-20T14:37:10.213Z,2.00
2018-11-20T14:39:58.261Z,2.00
2018-11-20T14:42:45.048Z,1.90
2018-11-20T14:45:31.127Z,1.90
2018-11-20T14:48:33.995Z,1.90
2018-11-20T14:51:18.004Z,1.90
2018-11-20T14:53:57.605Z,2.00
2018-11-20T14:56:56.874Z,2.00
2018-11-20T14:59:55.910Z,1.90
2018-11-20T15:02:39.780Z,1.90
2018-11-20T15:05:27.483Z,1.90
2018-11-20T15:08:27.525Z,1.90
2018-11-20T15:11:10.726Z,1.90
2018-11-20T15:13:55.710Z,1.80
2018-11-20T15:16:49.331Z,1.80
2018-11-20T15:19:35.322Z,1.80
2018-11-20T15:22:13.818Z,1.80
2018-11-20T15:25:01.131Z,1.80
2018-11-20T15:27:41.406Z,2.10
2018-11-20T15:30:27.882Z,2.00
2018-11-20T15:33:33.596Z,2.00
2018-11-20T15:36:24.039Z,1.90
2018-11-20T15:39:10.920Z,2.00
2018-11-20T15:42:10.822Z,1.80
2018-11-20T15:45:16.789Z,1.50
2018-11-20T15:48:10.352Z,1.50
2018-11-20T15:50:59.514Z,1.40
2018-11-20T15:53:45.631Z,1.40
2018-11-20T15:56:32.387Z,1.30
2018-11-20T15:59:18.905Z,1.40
2018-11-20T16:02:15.436Z,1.40
2018-11-20T16:05:18.317Z,1.40
2018-11-20T16:08:15.469Z,1.30
2018-11-20T16:10:59.961Z,1.20
2018-11-20T16:13:50.445Z,1.20
2018-11-20T16:16:41.764Z,1.10
2018-11-20T16:19:35.328Z,1.10
2018-11-20T16:22:21.810Z,1.10
2018-11-20T16:25:15.360Z,1.10
2018-11-20T16:28:03.948Z,1.10
2018-11-20T16:30:50.373Z,1.10
2018-11-20T16:33:40.890Z,1.10
2018-11-20T16:36:37.416Z,1.10
2018-11-20T16:39:27.811Z,1.00
2018-11-20T16:42:12.617Z,1.00
2018-11-20T16:45:00.146Z,1.20
2018-11-20T16:47:46.120Z,1.10
2018-11-20T16:50:42.890Z,1.10
2018-11-20T16:53:36.078Z,1.20
2018-11-20T16:56:39.095Z,1.10
2018-11-20T16:59:45.165Z,1.40
2018-11-20T17:02:32.718Z,1.20
2018-11-20T17:05:14.564Z,1.30
2018-11-20T17:08:14.313Z,1.40
2018-11-20T17:11:04.259Z,1.50
2018-11-20T17:13:50.676Z,1.50
2018-11-20T17:16:41.157Z,1.40
2018-11-20T17:19:40.834Z,1.40
2018-11-20T17:22:20.605Z,1.40
2018-11-20T17:25:12.194Z,1.20
2018-11-20T17:28:09.000Z,1.40
2018-11-20T17:30:55.312Z,1.40
2018-11-20T17:33:41.878Z,1.40
2018-11-20T17:36:41.601Z,1.30
2018-11-20T17:39:28.206Z,1.30
2018-11-20T17:42:14.301Z,1.30
2018-11-20T17:45:03.317Z,1.30
2018-11-20T17:47:57.095Z,1.40
2018-11-20T17:50:49.580Z,1.30
2018-11-20T17:53:37.143Z,1.40
2018-11-20T17:56:25.266Z,1.40
2018-11-20T17:59:19.211Z,1.40
2018-11-20T18:02:25.556Z,1.40
2018-11-20T18:05:12.003Z,1.40
2018-11-20T18:08:05.205Z,1.40
2018-11-20T18:10:51.120Z,1.40
2018-11-20T18:13:44.653Z,1.40
2018-11-20T18:16:35.623Z,1.40
2018-11-20T18:19:22.019Z,1.40
2018-11-20T18:22:18.533Z,1.40
2018-11-20T18:25:04.919Z,1.40
2018-11-20T18:28:01.393Z,1.40
2018-11-20T18:30:43.628Z,1.40
2018-11-20T18:33:40.175Z,1.40
2018-11-20T18:36:39.913Z,1.40
2018-11-20T18:39:29.487Z,1.40
2018-11-20T18:42:20.032Z,1.40
2018-11-20T18:45:00.912Z,1.40
2018-11-20T18:47:54.695Z,1.40
2018-11-20T18:50:44.925Z,1.40
2018-11-20T18:53:32.745Z,1.40
2018-11-20T18:56:19.547Z,1.40
2018-11-20T18:59:25.203Z,1.40
2018-11-20T19:02:11.431Z,1.40
2018-11-20T19:04:57.931Z,1.40
2018-11-20T19:08:00.557Z,1.40
2018-11-20T19:10:57.618Z,1.40
2018-11-20T19:13:51.548Z,1.40
2018-11-20T19:16:42.323Z,1.40
2018-11-20T19:19:28.672Z,1.40
2018-11-20T19:22:15.027Z,1.40
2018-11-20T19:25:01.907Z,1.40
2018-11-20T19:27:55.525Z,1.30
2018-11-20T19:30:43.025Z,1.30
2018-11-20T19:33:35.976Z,1.30
2018-11-20T19:36:26.724Z,1.40
2018-11-20T19:39:26.355Z,1.40
2018-11-20T19:42:31.910Z,1.40
2018-11-20T19:45:22.654Z,1.40
2018-11-20T19:48:09.036Z,1.40
2018-11-20T19:51:05.612Z,1.40
2018-11-20T19:53:53.082Z,1.40
2018-11-20T19:56:39.181Z,1.40
2018-11-20T19:59:25.587Z,1.40
2018-11-20T20:02:11.922Z,1.40
2018-11-20T20:05:08.359Z,1.40
2018-11-20T20:07:54.851Z,1.40
2018-11-20T20:10:40.883Z,1.30
2018-11-20T20:13:31.447Z,1.30
2018-11-20T20:16:25.235Z,1.30
2018-11-20T20:19:05.699Z,1.20
2018-11-20T20:21:59.743Z,1.20
2018-11-20T20:24:41.585Z,1.20
2018-11-20T20:27:29.132Z,1.20
2018-11-20T20:30:34.818Z,1.20
2018-11-20T20:33:21.223Z,1.10
2018-11-20T20:36:11.780Z,1.10
2018-11-20T20:39:14.730Z,1.10
2018-11-20T20:42:14.163Z,1.10
2018-11-20T20:45:07.405Z,1.10
2018-11-20T20:47:53.454Z,1.10
2018-11-20T20:50:41.057Z,1.10
2018-11-20T20:53:32.594Z,1.10
2018-11-20T20:56:18.980Z,1.10
2018-11-20T20:59:06.707Z,1.10
2018-11-20T21:02:10.336Z,1.10
2018-11-20T21:04:59.422Z,1.10
2018-11-20T21:07:43.374Z,1.10
2018-11-20T21:10:22.239Z,1.10
2018-11-20T21:13:04.431Z,1.00
2018-11-20T21:15:52.407Z,1.00
2018-11-20T21:18:38.890Z,1.00
2018-11-20T21:21:35.385Z,1.10
2018-11-20T21:24:25.407Z,1.10
2018-11-20T21:27:20.082Z,1.00
2018-11-20T21:30:06.224Z,1.00
2018-11-20T21:32:58.455Z,1.00
2018-11-20T21:35:46.934Z,1.00
2018-11-20T21:38:38.285Z,1.00
2018-11-20T21:41:33.543Z,1.10
2018-11-20T21:44:14.088Z,1.00
2018-11-20T21:47:00.430Z,0.90
2018-11-20T21:50:06.252Z,1.00
2018-11-20T21:52:49.052Z,1.00
2018-11-20T21:55:36.622Z,1.00
2018-11-20T21:58:43.151Z,0.90
2018-11-20T22:01:29.549Z,0.90
2018-11-20T22:04:29.061Z,0.90
2018-11-20T22:07:20.296Z,1.00
2018-11-20T22:10:14.015Z,1.00
2018-11-20T22:13:10.406Z,1.00
2018-11-20T22:15:57.435Z,1.00
2018-11-20T22:18:43.657Z,1.10
2018-11-20T22:21:34.208Z,1.10
2018-11-20T22:24:21.730Z,1.10
2018-11-20T22:27:08.050Z,1.00
2018-11-20T22:29:54.560Z,1.10
2018-11-20T22:32:44.963Z,1.20
2018-11-20T22:35:44.990Z,1.20
2018-11-20T22:38:24.551Z,1.20
2018-11-20T22:41:21.173Z,1.20
2018-11-20T22:44:20.916Z,1.00
2018-11-20T22:47:08.588Z,0.90
2018-11-20T22:49:51.761Z,0.70
2018-11-20T22:52:36.830Z,0.70
2018-11-20T22:55:21.473Z,0.70
2018-11-20T22:58:18.057Z,0.80
2018-11-20T23:01:05.644Z,0.90
2018-11-20T23:03:52.155Z,0.80
2018-11-20T23:06:37.642Z,0.70
2018-11-20T23:09:09.682Z,0.70
2018-11-20T23:11:38.362Z,0.80
2018-11-20T23:14:06.772Z,0.70
2018-11-20T23:16:35.262Z,0.60
2018-11-20T23:19:03.655Z,0.50
2018-11-20T23:21:32.174Z,0.60
2018-11-20T23:24:00.553Z,0.50
2018-11-20T23:26:29.172Z,0.40
2018-11-20T23:28:57.576Z,0.60
2018-11-20T23:31:26.109Z,0.60
2018-11-20T23:33:54.506Z,0.60
2018-11-20T23:36:23.028Z,0.50
2018-11-20T23:38:51.733Z,0.60
2018-11-20T23:41:20.202Z,0.50
2018-11-20T23:43:48.696Z,0.50
2018-11-20T23:46:17.204Z,0.60
2018-11-20T23:48:45.677Z,0.50
2018-11-20T23:51:14.072Z,0.50
2018-11-20T23:53:43.378Z,0.50
2018-11-20T23:56:11.921Z,0.30
2018-11-20T23:58:40.462Z,0.40
